Ningbo Seal — VRJD3 — position and weather

sailwx.info

Track history (hours):
 
Tides and Currents Weather Stations Pressure Air Temp Water Temp Dewpoint Dewpoint Depression Visibility Wind Speed Wind Dir Waves Ship Positions

Ningbo Seal

Last reported at 2016-Jan-24 03:11 UTC. Time now 2016-Feb-13 23:40 UTC.
Position N 24°33' E 119°15'.
Warning: this ship's position is 20 days out of date.

Length 224 m; draft 13.8 m.

Type: Cargo ship. MMSI: 477628100.

Date/timePositionNaut miles runAvg speedWind from/ knotsBaromVisibWave heightAir tempDewpointWater temp
2016-Jan-24 03:11N 24°33' E 119°15'5 7.1
2016-Jan-24 02:33N 24°30' E 119°11'54 7.7
2016-Jan-23 19:29N 23°56' E 118°24'47 6.8
2016-Jan-23 12:33N 23°29' E 117°43'  
2016-Jan-17 17:33N 01°16' E 104°12'1010.5
2016-Jan-17 16:33N 01°15' E 104°02'4 3.5
2016-Jan-17 15:25N 01°17' E 103°59'0 0.2
2016-Jan-17 14:31N 01°17' E 103°59'0 0.1
2016-Jan-17 12:10N 01°17' E 103°59'0 0.1
2016-Jan-17 11:33N 01°17' E 103°59'0 0.1
2016-Jan-17 10:33N 01°17' E 103°59'0 0.1
2016-Jan-17 09:33N 01°17' E 103°59'0 0.1
2016-Jan-17 08:32N 01°17' E 103°59'0 0.0
2016-Jan-17 07:31N 01°17' E 103°59'0 0.0
2016-Jan-17 06:32N 01°17' E 103°59'0 0.1
2016-Jan-17 05:33N 01°17' E 103°59'2 2.1
2016-Jan-17 04:33N 01°16' E 103°58'3 3.3
2016-Jan-17 03:33N 01°13' E 103°56'  
Track history (hours):
 
Tides and Currents Weather Stations Pressure Air Temp Water Temp Dewpoint Dewpoint Depression Visibility Wind Speed Wind Dir Waves Ship Positions

Ningbo Seal

Last reported at 2016-Jan-24 03:11 UTC. Time now 2016-Feb-13 23:40 UTC.
Position N 24°33' E 119°15'.
Warning: this ship's position is 20 days out of date.

Length 224 m; draft 13.8 m.

Type: Cargo ship. MMSI: 477628100.

Date/timePositionNaut miles runAvg speedWind from/ knotsBaromVisibWave heightAir tempDewpointWater temp
2016-Jan-24 03:11N 24°33' E 119°15'5 7.1
2016-Jan-24 02:33N 24°30' E 119°11'54 7.7
2016-Jan-23 19:29N 23°56' E 118°24'47 6.8
2016-Jan-23 12:33N 23°29' E 117°43'  
2016-Jan-17 17:33N 01°16' E 104°12'1010.5
2016-Jan-17 16:33N 01°15' E 104°02'4 3.5
2016-Jan-17 15:25N 01°17' E 103°59'0 0.2
2016-Jan-17 14:31N 01°17' E 103°59'0 0.1
2016-Jan-17 12:10N 01°17' E 103°59'0 0.1
2016-Jan-17 11:33N 01°17' E 103°59'0 0.1
2016-Jan-17 10:33N 01°17' E 103°59'0 0.1
2016-Jan-17 09:33N 01°17' E 103°59'0 0.1
2016-Jan-17 08:32N 01°17' E 103°59'0 0.0
2016-Jan-17 07:31N 01°17' E 103°59'0 0.0
2016-Jan-17 06:32N 01°17' E 103°59'0 0.1
2016-Jan-17 05:33N 01°17' E 103°59'2 2.1
2016-Jan-17 04:33N 01°16' E 103°58'3 3.3
2016-Jan-17 03:33N 01°13' E 103°56'  

Dump ship's entire track history